Time,TemperatureF,DewpointF,PressureIn,WindDirection,WindDirectionDegrees,WindSpeedMPH,WindSpeedGustMPH,Humidity,HourlyPrecipIn,Conditions,Clouds,dailyrainin,SoftwareType,DateUTC
2013-08-03 00:04:00,55.0,52.7,29.96,ENE,67,0.0,7.0,92,0.00,,,0.00,meteohub,2013-08-03 07:04:00,
2013-08-03 00:09:00,55.0,52.7,29.96,WNW,285,1.0,8.0,92,0.00,,,0.00,meteohub,2013-08-03 07:09:00,
2013-08-03 00:14:00,55.0,52.7,29.96,North,352,1.0,8.0,92,0.00,,,0.00,meteohub,2013-08-03 07:14:00,
2013-08-03 00:20:00,55.0,52.7,29.96,North,356,2.0,6.0,92,0.00,,,0.00,meteohub,2013-08-03 07:20:00,
2013-08-03 00:25:00,55.0,52.7,29.96,North,356,2.0,8.0,92,0.00,,,0.00,meteohub,2013-08-03 07:25:00,
2013-08-03 00:30:00,55.0,52.7,29.96,North,6,4.0,8.0,92,0.00,,,0.00,meteohub,2013-08-03 07:30:00,
2013-08-03 00:36:00,55.0,52.7,29.96,SSE,154,0.0,8.0,92,0.00,,,0.00,meteohub,2013-08-03 07:36:00,
2013-08-03 00:41:00,55.0,52.7,29.96,NNE,12,3.0,4.0,92,0.00,,,0.00,meteohub,2013-08-03 07:41:00,
2013-08-03 00:46:00,55.0,52.7,29.96,NW,323,1.0,7.0,92,0.00,,,0.00,meteohub,2013-08-03 07:46:00,
2013-08-03 00:51:00,55.2,52.9,29.96,NNW,340,1.0,7.0,92,0.00,,,0.00,meteohub,2013-08-03 07:51:00,
2013-08-03 00:57:00,55.0,52.7,29.95,NNW,347,1.0,7.0,92,0.00,,,0.00,meteohub,2013-08-03 07:57:00,
2013-08-03 01:02:00,55.2,52.9,29.95,NNE,22,3.0,7.0,92,0.00,,,0.00,meteohub,2013-08-03 08:02:00,
2013-08-03 01:07:00,55.0,52.7,29.96,NNW,335,0.0,7.0,92,0.00,,,0.00,meteohub,2013-08-03 08:07:00,
2013-08-03 01:12:00,55.0,52.7,29.96,SSW,210,0.0,5.0,92,0.00,,,0.00,meteohub,2013-08-03 08:12:00,
2013-08-03 01:17:00,55.2,52.9,29.96,ENE,67,0.0,5.0,92,0.00,,,0.00,meteohub,2013-08-03 08:17:00,
2013-08-03 01:23:00,55.0,52.7,29.96,SW,222,0.0,4.0,92,0.00,,,0.00,meteohub,2013-08-03 08:23:00,
2013-08-03 01:28:00,55.0,52.7,29.96,ESE,118,0.0,5.0,92,0.00,,,0.00,meteohub,2013-08-03 08:28:00,
2013-08-03 01:33:00,55.0,52.7,29.96,NNW,338,0.0,5.0,92,0.00,,,0.00,meteohub,2013-08-03 08:33:00,
2013-08-03 01:38:00,55.0,52.7,29.95,NW,316,0.0,5.0,92,0.00,,,0.00,meteohub,2013-08-03 08:38:00,
2013-08-03 01:43:00,55.0,52.7,29.95,NNE,29,0.0,4.0,92,0.00,,,0.00,meteohub,2013-08-03 08:43:00,
2013-08-03 01:49:00,55.0,52.7,29.95,WSW,244,1.0,7.0,92,0.00,,,0.00,meteohub,2013-08-03 08:49:00,
2013-08-03 01:54:00,55.0,52.7,29.95,NNW,342,2.0,7.0,92,0.00,,,0.00,meteohub,2013-08-03 08:54:00,
2013-08-03 01:59:00,54.9,52.5,29.95,West,274,1.0,7.0,92,0.00,,,0.00,meteohub,2013-08-03 08:59:00,
2013-08-03 02:05:00,54.9,52.5,29.95,ENE,75,0.0,5.0,92,0.00,,,0.00,meteohub,2013-08-03 09:05:00,
2013-08-03 02:10:00,54.9,52.5,29.95,West,262,2.0,5.0,92,0.00,,,0.00,meteohub,2013-08-03 09:10:00,
2013-08-03 02:15:00,54.9,52.5,29.95,NNE,16,5.0,5.0,92,0.00,,,0.00,meteohub,2013-08-03 09:15:00,
2013-08-03 02:20:00,54.9,52.5,29.95,WSW,238,1.0,5.0,92,0.00,,,0.00,meteohub,2013-08-03 09:20:00,
2013-08-03 02:25:00,54.7,52.3,29.95,SW,214,1.0,5.0,92,0.00,,,0.00,meteohub,2013-08-03 09:25:00,
2013-08-03 02:30:00,54.9,52.5,29.95,NNW,344,0.0,5.0,92,0.00,,,0.00,meteohub,2013-08-03 09:30:00,
2013-08-03 02:35:00,54.7,52.7,29.95,NNW,328,1.0,7.0,93,0.00,,,0.00,meteohub,2013-08-03 09:35:00,
2013-08-03 02:41:00,54.7,52.7,29.95,NNE,29,2.0,7.0,93,0.00,,,0.00,meteohub,2013-08-03 09:41:00,
2013-08-03 02:46:00,54.7,52.7,29.95,NNW,348,2.0,8.0,93,0.00,,,0.00,meteohub,2013-08-03 09:46:00,
2013-08-03 02:51:00,54.5,52.5,29.95,North,6,2.0,9.0,93,0.00,,,0.00,meteohub,2013-08-03 09:51:00,
2013-08-03 02:56:00,54.7,52.7,29.95,SE,132,0.0,9.0,93,0.00,,,0.00,meteohub,2013-08-03 09:56:00,
2013-08-03 03:01:00,54.7,52.7,29.95,SW,221,1.0,5.0,93,0.00,,,0.00,meteohub,2013-08-03 10:01:00,
2013-08-03 03:07:00,54.5,52.5,29.95,NE,49,0.0,5.0,93,0.00,,,0.00,meteohub,2013-08-03 10:07:00,
2013-08-03 03:12:00,54.5,52.5,29.95,NNE,27,0.0,5.0,93,0.00,,,0.00,meteohub,2013-08-03 10:12:00,
2013-08-03 03:18:00,54.5,52.5,29.95,North,11,2.0,5.0,93,0.00,,,0.00,meteohub,2013-08-03 10:18:00,
2013-08-03 03:23:00,54.5,52.5,29.95,North,359,3.0,5.0,93,0.00,,,0.00,meteohub,2013-08-03 10:23:00,
2013-08-03 03:28:00,54.3,52.3,29.95,NNW,342,3.0,5.0,93,0.00,,,0.00,meteohub,2013-08-03 10:28:00,
2013-08-03 03:33:00,54.3,52.7,29.95,North,359,1.0,6.0,94,0.00,,,0.00,meteohub,2013-08-03 10:33:00,
2013-08-03 03:38:00,54.3,52.7,29.95,WNW,300,1.0,6.0,94,0.00,,,0.00,meteohub,2013-08-03 10:38:00,
2013-08-03 03:44:00,54.1,52.5,29.95,NE,49,1.0,6.0,94,0.00,,,0.00,meteohub,2013-08-03 10:44:00,
2013-08-03 03:49:00,54.1,52.5,29.95,SSE,153,1.0,6.0,94,0.00,,,0.00,meteohub,2013-08-03 10:49:00,
2013-08-03 03:54:00,54.1,52.5,29.95,NE,53,2.0,6.0,94,0.00,,,0.00,meteohub,2013-08-03 10:54:00,
2013-08-03 03:59:00,54.0,52.3,29.95,NNE,12,0.0,6.0,94,0.00,,,0.00,meteohub,2013-08-03 10:59:00,
2013-08-03 04:04:00,54.0,52.3,29.95,NW,323,3.0,6.0,94,0.00,,,0.00,meteohub,2013-08-03 11:04:00,
2013-08-03 04:09:00,54.0,52.3,29.95,NW,316,5.0,6.0,94,0.00,,,0.00,meteohub,2013-08-03 11:09:00,
2013-08-03 04:14:00,54.0,52.3,29.95,WNW,297,1.0,6.0,94,0.00,,,0.00,meteohub,2013-08-03 11:14:00,
2013-08-03 04:19:00,53.8,52.2,29.96,NNW,333,3.0,8.0,94,0.00,,,0.00,meteohub,2013-08-03 11:19:00,
2013-08-03 04:24:00,53.8,52.2,29.96,North,6,0.0,8.0,94,0.00,,,0.00,meteohub,2013-08-03 11:24:00,
2013-08-03 04:30:00,53.8,52.2,29.96,NW,324,1.0,4.0,94,0.00,,,0.00,meteohub,2013-08-03 11:30:00,
2013-08-03 04:35:00,53.8,52.2,29.96,NE,45,1.0,3.0,94,0.00,,,0.00,meteohub,2013-08-03 11:35:00,
2013-08-03 04:40:00,53.8,52.2,29.96,NNE,20,0.0,4.0,94,0.00,,,0.00,meteohub,2013-08-03 11:40:00,
2013-08-03 04:46:00,53.8,52.2,29.95,NE,37,1.0,5.0,94,0.00,,,0.00,meteohub,2013-08-03 11:46:00,
2013-08-03 04:51:00,53.8,52.2,29.95,NNW,333,0.0,5.0,94,0.00,,,0.00,meteohub,2013-08-03 11:51:00,
2013-08-03 04:56:00,53.8,52.2,29.95,NW,318,3.0,5.0,94,0.00,,,0.00,meteohub,2013-08-03 11:56:00,
2013-08-03 05:02:00,53.8,52.2,29.96,NW,304,0.0,8.0,94,0.00,,,0.00,meteohub,2013-08-03 12:02:00,
2013-08-03 05:06:00,53.8,52.2,29.96,North,358,0.0,8.0,94,0.00,,,0.00,meteohub,2013-08-03 12:06:00,
2013-08-03 05:12:00,53.8,52.2,29.96,NE,56,0.0,6.0,94,0.00,,,0.00,meteohub,2013-08-03 12:12:00,
2013-08-03 05:17:00,53.8,52.2,29.96,SW,216,1.0,5.0,94,0.00,,,0.00,meteohub,2013-08-03 12:17:00,
2013-08-03 05:22:00,53.8,52.2,29.96,West,278,0.0,4.0,94,0.00,,,0.00,meteohub,2013-08-03 12:22:00,
2013-08-03 05:27:00,54.0,52.3,29.96,North,6,3.0,4.0,94,0.00,,,0.00,meteohub,2013-08-03 12:27:00,
2013-08-03 05:32:00,54.0,52.3,29.96,North,354,2.0,4.0,94,0.00,,,0.00,meteohub,2013-08-03 12:32:00,
2013-08-03 05:38:00,54.0,52.3,29.96,NE,34,0.0,4.0,94,0.00,,,0.00,meteohub,2013-08-03 12:38:00,
2013-08-03 05:43:00,54.0,52.3,29.96,NNE,32,2.0,6.0,94,0.00,,,0.00,meteohub,2013-08-03 12:43:00,
2013-08-03 05:48:00,54.0,52.3,29.96,NW,316,1.0,6.0,94,0.00,,,0.00,meteohub,2013-08-03 12:48:00,
2013-08-03 05:53:00,54.0,52.3,29.96,NNW,332,2.0,6.0,94,0.00,,,0.00,meteohub,2013-08-03 12:53:00,
2013-08-03 05:58:00,54.0,52.3,29.96,WNW,296,2.0,5.0,94,0.00,,,0.00,meteohub,2013-08-03 12:58:00,
2013-08-03 06:04:00,54.0,52.3,29.96,NW,314,0.0,7.0,94,0.00,,,0.00,meteohub,2013-08-03 13:04:00,
2013-08-03 06:09:00,54.0,52.3,29.97,SE,136,3.0,7.0,94,0.00,,,0.00,meteohub,2013-08-03 13:09:00,
2013-08-03 06:14:00,53.8,52.2,29.97,NNW,342,0.0,7.0,94,0.00,,,0.00,meteohub,2013-08-03 13:14:00,
2013-08-03 06:20:00,53.8,52.2,29.96,NNW,346,2.0,6.0,94,0.00,,,0.00,meteohub,2013-08-03 13:20:00,
2013-08-03 06:25:00,54.0,52.3,29.97,NNW,328,2.0,5.0,94,0.00,,,0.00,meteohub,2013-08-03 13:25:00,
2013-08-03 06:30:00,53.8,52.2,29.97,North,356,0.0,5.0,94,0.00,,,0.00,meteohub,2013-08-03 13:30:00,
2013-08-03 06:35:00,53.8,52.2,29.97,WNW,287,0.0,9.0,94,0.00,,,0.00,meteohub,2013-08-03 13:35:00,
2013-08-03 06:40:00,53.8,52.2,29.97,NNW,340,4.0,9.0,94,0.00,,,0.00,meteohub,2013-08-03 13:40:00,
2013-08-03 06:45:00,53.8,52.2,29.97,NNE,15,3.0,9.0,94,0.00,,,0.00,meteohub,2013-08-03 13:45:00,
2013-08-03 06:51:00,53.8,52.2,29.97,ENE,62,2.0,11.0,94,0.00,,,0.00,meteohub,2013-08-03 13:51:00,
2013-08-03 06:56:00,53.6,52.0,29.97,ENE,63,1.0,11.0,94,0.00,,,0.00,meteohub,2013-08-03 13:56:00,
2013-08-03 07:02:00,53.8,52.2,29.98,NNW,347,1.0,11.0,94,0.00,,,0.00,meteohub,2013-08-03 14:02:00,
2013-08-03 07:07:00,53.8,52.2,29.98,SSW,211,1.0,8.0,94,0.00,,,0.00,meteohub,2013-08-03 14:07:00,
2013-08-03 07:12:00,53.8,52.2,29.98,NW,314,0.0,7.0,94,0.00,,,0.00,meteohub,2013-08-03 14:12:00,
2013-08-03 07:17:00,53.8,52.2,29.98,North,349,2.0,5.0,94,0.00,,,0.00,meteohub,2013-08-03 14:17:00,
2013-08-03 07:22:00,53.8,52.2,29.98,NW,316,2.0,5.0,94,0.00,,,0.00,meteohub,2013-08-03 14:22:00,
2013-08-03 07:27:00,54.0,52.3,29.98,WNW,293,0.0,3.0,94,0.00,,,0.00,meteohub,2013-08-03 14:27:00,
2013-08-03 07:32:00,54.0,52.3,29.99,North,358,1.0,3.0,94,0.00,,,0.00,meteohub,2013-08-03 14:32:00,
2013-08-03 07:38:00,54.0,52.3,29.99,NNE,33,2.0,3.0,94,0.00,,,0.00,meteohub,2013-08-03 14:38:00,
2013-08-03 07:43:00,54.0,52.3,29.99,NW,305,2.0,5.0,94,0.00,,,0.00,meteohub,2013-08-03 14:43:00,
2013-08-03 07:48:00,54.1,52.5,29.99,NW,309,0.0,6.0,94,0.00,,,0.00,meteohub,2013-08-03 14:48:00,
2013-08-03 07:53:00,54.1,52.5,29.99,South,190,1.0,7.0,94,0.00,,,0.00,meteohub,2013-08-03 14:53:00,
2013-08-03 07:58:00,54.1,52.5,29.99,NNW,333,3.0,7.0,94,0.00,,,0.00,meteohub,2013-08-03 14:58:00,
2013-08-03 08:03:00,54.1,52.5,29.99,ENE,68,0.0,5.0,94,0.00,,,0.00,meteohub,2013-08-03 15:03:00,
2013-08-03 08:09:00,54.1,52.2,29.99,ENE,58,0.0,5.0,93,0.00,,,0.00,meteohub,2013-08-03 15:09:00,
2013-08-03 08:14:00,54.3,52.7,30.00,NNE,18,0.0,5.0,94,0.00,,,0.00,meteohub,2013-08-03 15:14:00,
2013-08-03 08:19:00,54.3,52.7,29.99,ENE,64,0.0,5.0,94,0.00,,,0.00,meteohub,2013-08-03 15:19:00,
2013-08-03 08:24:00,54.3,52.3,29.99,North,3,0.0,4.0,93,0.00,,,0.00,meteohub,2013-08-03 15:24:00,
2013-08-03 08:29:00,54.5,52.5,29.99,WNW,290,1.0,6.0,93,0.00,,,0.00,meteohub,2013-08-03 15:29:00,
2013-08-03 08:34:00,54.7,53.1,30.00,North,6,1.0,6.0,94,0.00,,,0.00,meteohub,2013-08-03 15:34:00,
2013-08-03 08:39:00,54.7,52.7,30.00,South,191,0.0,6.0,93,0.00,,,0.00,meteohub,2013-08-03 15:39:00,
2013-08-03 08:45:00,54.9,52.9,30.00,SW,214,1.0,6.0,93,0.00,,,0.00,meteohub,2013-08-03 15:45:00,
2013-08-03 08:50:00,54.9,52.9,30.00,SE,131,1.0,6.0,93,0.00,,,0.00,meteohub,2013-08-03 15:50:00,
2013-08-03 08:55:00,55.0,52.7,30.00,NNE,19,1.0,8.0,92,0.00,,,0.00,meteohub,2013-08-03 15:55:00,
2013-08-03 09:00:00,55.0,52.7,30.00,NNE,18,0.0,8.0,92,0.00,,,0.00,meteohub,2013-08-03 16:00:00,
2013-08-03 09:05:00,55.2,52.9,30.00,NNW,344,1.0,8.0,92,0.00,,,0.00,meteohub,2013-08-03 16:05:00,
2013-08-03 09:10:00,55.2,52.9,30.00,NNE,30,4.0,6.0,92,0.00,,,0.00,meteohub,2013-08-03 16:10:00,
2013-08-03 09:16:00,55.2,52.9,30.00,NW,305,1.0,6.0,92,0.00,,,0.00,meteohub,2013-08-03 16:16:00,
2013-08-03 09:21:00,55.6,53.2,30.00,North,349,2.0,6.0,92,0.00,,,0.00,meteohub,2013-08-03 16:21:00,
2013-08-03 09:26:00,55.6,53.2,30.00,NNW,346,1.0,6.0,92,0.00,,,0.00,meteohub,2013-08-03 16:26:00,
2013-08-03 09:31:00,55.8,53.2,30.00,NE,39,0.0,6.0,91,0.00,,,0.00,meteohub,2013-08-03 16:31:00,
2013-08-03 09:37:00,55.9,53.4,30.00,NNE,26,0.0,6.0,91,0.00,,,0.00,meteohub,2013-08-03 16:37:00,
2013-08-03 09:42:00,56.1,53.6,30.00,North,6,0.0,4.0,91,0.00,,,0.00,meteohub,2013-08-03 16:42:00,
2013-08-03 09:47:00,56.1,53.2,30.00,East,84,0.0,4.0,90,0.00,,,0.00,meteohub,2013-08-03 16:47:00,
2013-08-03 09:52:00,56.1,53.2,30.00,WNW,300,1.0,8.0,90,0.00,,,0.00,meteohub,2013-08-03 16:52:00,
2013-08-03 09:57:00,56.3,53.4,30.00,NW,321,3.0,8.0,90,0.00,,,0.00,meteohub,2013-08-03 16:57:00,
2013-08-03 10:02:00,56.3,53.4,30.00,NNW,332,0.0,10.0,90,0.00,,,0.00,meteohub,2013-08-03 17:02:00,
2013-08-03 10:07:00,56.5,53.2,30.00,NW,306,2.0,10.0,89,0.00,,,0.00,meteohub,2013-08-03 17:07:00,
2013-08-03 10:12:00,56.5,53.6,30.00,South,176,6.0,10.0,90,0.00,,,0.00,meteohub,2013-08-03 17:12:00,
2013-08-03 10:17:00,56.5,53.6,30.00,North,8,1.0,9.0,90,0.00,,,0.00,meteohub,2013-08-03 17:17:00,
2013-08-03 10:22:00,56.5,53.6,30.00,SSE,166,1.0,9.0,90,0.00,,,0.00,meteohub,2013-08-03 17:22:00,
2013-08-03 10:27:00,56.8,53.6,30.00,ENE,66,1.0,9.0,89,0.00,,,0.00,meteohub,2013-08-03 17:27:00,
2013-08-03 10:33:00,57.0,53.8,30.00,WNW,297,0.0,7.0,89,0.00,,,0.00,meteohub,2013-08-03 17:33:00,
2013-08-03 10:38:00,57.2,53.6,30.00,NNW,334,1.0,6.0,88,0.00,,,0.00,meteohub,2013-08-03 17:38:00,
2013-08-03 10:43:00,57.6,54.0,30.00,SSW,193,1.0,6.0,88,0.00,,,0.00,meteohub,2013-08-03 17:43:00,
2013-08-03 10:48:00,57.4,53.8,30.00,SE,135,1.0,7.0,88,0.00,,,0.00,meteohub,2013-08-03 17:48:00,
2013-08-03 10:53:00,57.4,53.8,30.00,NNE,27,3.0,7.0,88,0.00,,,0.00,meteohub,2013-08-03 17:53:00,
2013-08-03 10:59:00,57.6,54.0,30.01,NNW,348,0.0,8.0,88,0.00,,,0.00,meteohub,2013-08-03 17:59:00,
2013-08-03 11:04:00,57.9,54.1,30.00,SSW,201,2.0,8.0,87,0.00,,,0.00,meteohub,2013-08-03 18:04:00,
2013-08-03 11:09:00,58.1,54.0,30.00,North,4,3.0,8.0,86,0.00,,,0.00,meteohub,2013-08-03 18:09:00,
2013-08-03 11:14:00,58.5,54.3,30.00,North,358,1.0,6.0,86,0.00,,,0.00,meteohub,2013-08-03 18:14:00,
2013-08-03 11:19:00,58.6,54.5,30.00,NE,39,1.0,7.0,86,0.00,,,0.00,meteohub,2013-08-03 18:19:00,
2013-08-03 11:25:00,58.5,54.3,30.00,SSE,152,1.0,10.0,86,0.00,,,0.00,meteohub,2013-08-03 18:25:00,
2013-08-03 11:30:00,58.3,54.1,30.00,WNW,302,2.0,10.0,86,0.00,,,0.00,meteohub,2013-08-03 18:30:00,
2013-08-03 11:35:00,58.6,54.5,30.00,NW,326,3.0,10.0,86,0.00,,,0.00,meteohub,2013-08-03 18:35:00,
2013-08-03 11:40:00,58.6,53.8,30.00,WNW,300,6.0,9.0,84,0.00,,,0.00,meteohub,2013-08-03 18:40:00,
2013-08-03 11:45:00,58.8,54.0,30.00,NNE,25,4.0,11.0,84,0.00,,,0.00,meteohub,2013-08-03 18:45:00,
2013-08-03 11:51:00,59.4,54.1,30.00,NNE,21,5.0,11.0,83,0.00,,,0.00,meteohub,2013-08-03 18:51:00,
2013-08-03 11:56:00,59.4,54.1,30.00,NNE,15,12.0,12.0,83,0.00,,,0.00,meteohub,2013-08-03 18:56:00,
2013-08-03 12:01:00,59.2,54.0,30.00,North,357,9.0,12.0,83,0.00,,,0.00,meteohub,2013-08-03 19:01:00,
2013-08-03 12:07:00,58.8,54.0,30.00,North,352,5.0,13.0,84,0.00,,,0.00,meteohub,2013-08-03 19:07:00,
2013-08-03 12:12:00,59.2,54.0,30.00,WSW,240,2.0,13.0,83,0.00,,,0.00,meteohub,2013-08-03 19:12:00,
2013-08-03 12:17:00,59.5,54.3,30.00,NNW,332,4.0,13.0,83,0.00,,,0.00,meteohub,2013-08-03 19:17:00,
2013-08-03 12:22:00,59.7,54.5,30.00,ENE,68,1.0,10.0,83,0.00,,,0.00,meteohub,2013-08-03 19:22:00,
2013-08-03 12:27:00,59.9,54.3,30.00,SSW,199,2.0,17.0,82,0.00,,,0.00,meteohub,2013-08-03 19:27:00,
2013-08-03 12:32:00,60.1,54.5,30.00,NW,319,7.0,17.0,82,0.00,,,0.00,meteohub,2013-08-03 19:32:00,
2013-08-03 12:37:00,60.3,54.3,30.00,North,352,3.0,13.0,81,0.00,,,0.00,meteohub,2013-08-03 19:37:00,
2013-08-03 12:42:00,60.3,54.3,30.00,NNW,338,3.0,13.0,81,0.00,,,0.00,meteohub,2013-08-03 19:42:00,
2013-08-03 12:48:00,60.1,54.3,30.00,NW,324,8.0,17.0,81,0.00,,,0.00,meteohub,2013-08-03 19:48:00,
2013-08-03 12:53:00,60.1,54.5,30.00,NNW,347,10.0,17.0,82,0.00,,,0.00,meteohub,2013-08-03 19:53:00,
2013-08-03 12:58:00,60.1,54.5,29.99,WNW,301,9.0,17.0,82,0.00,,,0.00,meteohub,2013-08-03 19:58:00,
2013-08-03 13:03:00,60.3,54.7,29.99,NNW,348,4.0,19.0,82,0.00,,,0.00,meteohub,2013-08-03 20:03:00,
2013-08-03 13:08:00,60.4,54.5,29.99,North,353,5.0,19.0,81,0.00,,,0.00,meteohub,2013-08-03 20:08:00,
2013-08-03 13:13:00,60.6,54.5,29.99,ENE,64,8.0,19.0,80,0.00,,,0.00,meteohub,2013-08-03 20:13:00,
2013-08-03 13:19:00,60.6,54.5,29.99,NNW,340,4.0,15.0,80,0.00,,,0.00,meteohub,2013-08-03 20:19:00,
2013-08-03 13:24:00,60.4,54.5,29.99,NW,309,0.0,16.0,81,0.00,,,0.00,meteohub,2013-08-03 20:24:00,
2013-08-03 13:29:00,61.0,54.7,29.99,North,352,7.0,19.0,80,0.00,,,0.00,meteohub,2013-08-03 20:29:00,
2013-08-03 13:34:00,60.8,54.3,29.99,North,4,10.0,19.0,79,0.00,,,0.00,meteohub,2013-08-03 20:34:00,
2013-08-03 13:39:00,60.6,54.1,29.99,North,352,2.0,19.0,79,0.00,,,0.00,meteohub,2013-08-03 20:39:00,
2013-08-03 13:44:00,60.4,54.3,29.99,NNW,339,2.0,19.0,80,0.00,,,0.00,meteohub,2013-08-03 20:44:00,
2013-08-03 13:49:00,60.8,54.7,29.99,WNW,292,9.0,19.0,80,0.00,,,0.00,meteohub,2013-08-03 20:49:00,
2013-08-03 13:55:00,60.4,54.5,29.99,North,353,6.0,18.0,81,0.00,,,0.00,meteohub,2013-08-03 20:55:00,
2013-08-03 14:00:00,60.4,54.5,29.99,North,352,3.0,17.0,81,0.00,,,0.00,meteohub,2013-08-03 21:00:00,
2013-08-03 14:05:00,60.4,54.5,29.99,North,352,3.0,17.0,81,0.00,,,0.00,meteohub,2013-08-03 21:05:00,
2013-08-03 14:11:00,60.3,54.3,29.99,NNE,13,12.0,17.0,81,0.00,,,0.00,meteohub,2013-08-03 21:11:00,
2013-08-03 14:16:00,60.4,54.5,29.99,North,1,11.0,17.0,81,0.00,,,0.00,meteohub,2013-08-03 21:16:00,
2013-08-03 14:21:00,60.4,54.5,29.99,North,5,12.0,17.0,81,0.00,,,0.00,meteohub,2013-08-03 21:21:00,
2013-08-03 14:26:00,60.4,54.9,29.99,WNW,297,4.0,16.0,82,0.00,,,0.00,meteohub,2013-08-03 21:26:00,
2013-08-03 14:31:00,60.8,54.9,29.99,NE,41,12.0,17.0,81,0.00,,,0.00,meteohub,2013-08-03 21:31:00,
2013-08-03 14:36:00,61.2,54.9,29.99,WNW,293,10.0,17.0,80,0.00,,,0.00,meteohub,2013-08-03 21:36:00,
2013-08-03 14:42:00,60.8,54.9,29.99,North,356,4.0,17.0,81,0.00,,,0.00,meteohub,2013-08-03 21:42:00,
2013-08-03 14:47:00,60.8,54.9,29.99,NW,319,3.0,17.0,81,0.00,,,0.00,meteohub,2013-08-03 21:47:00,
2013-08-03 14:52:00,61.2,54.9,29.98,North,356,14.0,17.0,80,0.00,,,0.00,meteohub,2013-08-03 21:52:00,
2013-08-03 14:57:00,61.2,54.9,29.98,NW,311,8.0,16.0,80,0.00,,,0.00,meteohub,2013-08-03 21:57:00,
2013-08-03 15:03:00,61.2,54.9,29.98,North,356,16.0,16.0,80,0.00,,,0.00,meteohub,2013-08-03 22:03:00,
2013-08-03 15:08:00,61.2,55.2,29.98,NNE,13,1.0,17.0,81,0.00,,,0.00,meteohub,2013-08-03 22:08:00,
2013-08-03 15:13:00,61.2,54.9,29.98,NNE,13,11.0,17.0,80,0.00,,,0.00,meteohub,2013-08-03 22:13:00,
2013-08-03 15:18:00,61.0,54.7,29.97,North,9,9.0,17.0,80,0.00,,,0.00,meteohub,2013-08-03 22:18:00,
2013-08-03 15:23:00,61.0,55.0,29.98,North,359,5.0,21.0,81,0.00,,,0.00,meteohub,2013-08-03 22:23:00,
2013-08-03 15:29:00,60.8,54.9,29.98,WNW,284,4.0,21.0,81,0.00,,,0.00,meteohub,2013-08-03 22:29:00,
2013-08-03 15:34:00,61.0,55.0,29.97,NNE,15,6.0,21.0,81,0.00,,,0.00,meteohub,2013-08-03 22:34:00,
2013-08-03 15:39:00,61.0,54.7,29.97,NW,316,9.0,14.0,80,0.00,,,0.00,meteohub,2013-08-03 22:39:00,
2013-08-03 15:44:00,60.6,54.7,29.97,North,356,8.0,12.0,81,0.00,,,0.00,meteohub,2013-08-03 22:44:00,
2013-08-03 15:49:00,60.4,54.9,29.97,NNE,19,7.0,17.0,82,0.00,,,0.00,meteohub,2013-08-03 22:49:00,
2013-08-03 15:54:00,60.1,54.5,29.97,North,349,8.0,17.0,82,0.00,,,0.00,meteohub,2013-08-03 22:54:00,
2013-08-03 15:59:00,60.3,54.3,29.97,NE,36,6.0,17.0,81,0.00,,,0.00,meteohub,2013-08-03 22:59:00,
2013-08-03 16:04:00,60.3,54.7,29.97,NNW,327,6.0,16.0,82,0.00,,,0.00,meteohub,2013-08-03 23:04:00,
2013-08-03 16:10:00,60.1,54.5,29.97,NNE,20,12.0,18.0,82,0.00,,,0.00,meteohub,2013-08-03 23:10:00,
2013-08-03 16:15:00,60.4,54.9,29.97,NNE,25,10.0,18.0,82,0.00,,,0.00,meteohub,2013-08-03 23:15:00,
2013-08-03 16:21:00,60.3,54.7,29.96,NNW,340,5.0,17.0,82,0.00,,,0.00,meteohub,2013-08-03 23:21:00,
2013-08-03 16:26:00,60.4,54.5,29.96,ENE,65,6.0,15.0,81,0.00,,,0.00,meteohub,2013-08-03 23:26:00,
2013-08-03 16:31:00,60.4,54.9,29.96,NNE,29,5.0,17.0,82,0.00,,,0.00,meteohub,2013-08-03 23:31:00,
2013-08-03 16:36:00,60.8,54.9,29.96,NNE,19,12.0,17.0,81,0.00,,,0.00,meteohub,2013-08-03 23:36:00,
2013-08-03 16:41:00,60.3,54.3,29.96,North,352,7.0,17.0,81,0.00,,,0.00,meteohub,2013-08-03 23:41:00,
2013-08-03 16:46:00,60.3,54.7,29.96,North,349,4.0,16.0,82,0.00,,,0.00,meteohub,2013-08-03 23:46:00,
2013-08-03 16:52:00,60.1,54.5,29.96,NNE,29,2.0,16.0,82,0.00,,,0.00,meteohub,2013-08-03 23:52:00,
2013-08-03 16:57:00,60.1,54.9,29.96,NNE,25,4.0,16.0,83,0.00,,,0.00,meteohub,2013-08-03 23:57:00,
2013-08-03 17:02:00,60.1,54.9,29.96,NW,314,7.0,17.0,83,0.00,,,0.00,meteohub,2013-08-04 00:02:00,
2013-08-03 17:07:00,59.7,54.9,29.96,NNW,329,6.0,17.0,84,0.00,,,0.00,meteohub,2013-08-04 00:07:00,
2013-08-03 17:12:00,59.7,54.9,29.96,NNE,29,5.0,17.0,84,0.00,,,0.00,meteohub,2013-08-04 00:12:00,
2013-08-03 17:17:00,59.7,54.9,29.96,North,352,6.0,17.0,84,0.00,,,0.00,meteohub,2013-08-04 00:17:00,
2013-08-03 17:22:00,59.2,54.7,29.96,NNW,335,5.0,14.0,85,0.00,,,0.00,meteohub,2013-08-04 00:22:00,
2013-08-03 17:27:00,58.6,54.1,29.95,NNW,332,1.0,20.0,85,0.00,,,0.00,meteohub,2013-08-04 00:27:00,
2013-08-03 17:33:00,58.6,54.5,29.95,NNE,25,9.0,20.0,86,0.00,,,0.00,meteohub,2013-08-04 00:33:00,
2013-08-03 17:38:00,58.6,54.5,29.95,North,11,6.0,17.0,86,0.00,,,0.00,meteohub,2013-08-04 00:38:00,
2013-08-03 17:43:00,58.6,54.5,29.95,NE,44,14.0,17.0,86,0.00,,,0.00,meteohub,2013-08-04 00:43:00,
2013-08-03 17:49:00,58.1,54.3,29.95,WNW,294,4.0,15.0,87,0.00,,,0.00,meteohub,2013-08-04 00:49:00,
2013-08-03 17:53:00,57.9,54.1,29.95,NNE,12,3.0,19.0,87,0.00,,,0.00,meteohub,2013-08-04 00:53:00,
2013-08-03 17:59:00,57.9,54.1,29.95,NNE,25,4.0,19.0,87,0.00,,,0.00,meteohub,2013-08-04 00:59:00,
2013-08-03 18:04:00,57.9,54.3,29.94,North,1,2.0,21.0,88,0.00,,,0.00,meteohub,2013-08-04 01:04:00,
2013-08-03 18:09:00,57.7,54.1,29.94,NNW,329,14.0,21.0,88,0.00,,,0.00,meteohub,2013-08-04 01:09:00,
2013-08-03 18:14:00,57.6,54.0,29.94,NNW,338,8.0,14.0,88,0.00,,,0.00,meteohub,2013-08-04 01:14:00,
2013-08-03 18:19:00,57.4,53.8,29.95,North,5,6.0,14.0,88,0.00,,,0.00,meteohub,2013-08-04 01:19:00,
2013-08-03 18:24:00,57.0,53.4,29.94,North,1,10.0,14.0,88,0.00,,,0.00,meteohub,2013-08-04 01:24:00,
2013-08-03 18:29:00,57.0,53.4,29.94,NNW,336,7.0,19.0,88,0.00,,,0.00,meteohub,2013-08-04 01:29:00,
2013-08-03 18:35:00,56.8,53.6,29.94,NNE,15,6.0,19.0,89,0.00,,,0.00,meteohub,2013-08-04 01:35:00,
2013-08-03 18:40:00,56.7,53.4,29.94,NNE,24,7.0,17.0,89,0.00,,,0.00,meteohub,2013-08-04 01:40:00,
2013-08-03 18:45:00,56.5,53.2,29.94,NNE,25,5.0,16.0,89,0.00,,,0.00,meteohub,2013-08-04 01:45:00,
2013-08-03 18:50:00,56.3,53.1,29.94,NNE,22,7.0,16.0,89,0.00,,,0.00,meteohub,2013-08-04 01:50:00,
2013-08-03 18:55:00,55.9,53.1,29.94,ENE,74,3.0,16.0,90,0.00,,,0.00,meteohub,2013-08-04 01:55:00,
2013-08-03 19:01:00,55.8,52.9,29.94,NNE,13,2.0,16.0,90,0.00,,,0.00,meteohub,2013-08-04 02:01:00,
2013-08-03 19:06:00,55.8,52.9,29.94,North,11,6.0,16.0,90,0.00,,,0.00,meteohub,2013-08-04 02:06:00,
2013-08-03 19:11:00,55.4,52.5,29.94,NNW,328,9.0,16.0,90,0.00,,,0.00,meteohub,2013-08-04 02:11:00,
2013-08-03 19:16:00,55.2,52.7,29.94,North,1,6.0,16.0,91,0.00,,,0.00,meteohub,2013-08-04 02:16:00,
2013-08-03 19:22:00,55.2,52.7,29.94,NE,49,2.0,17.0,91,0.00,,,0.00,meteohub,2013-08-04 02:22:00,
2013-08-03 19:27:00,55.2,52.7,29.94,NNW,338,6.0,17.0,91,0.00,,,0.00,meteohub,2013-08-04 02:27:00,
2013-08-03 19:32:00,55.0,52.5,29.94,NW,326,8.0,17.0,91,0.00,,,0.00,meteohub,2013-08-04 02:32:00,
2013-08-03 19:36:00,54.9,52.3,29.94,NNW,340,2.0,13.0,91,0.00,,,0.00,meteohub,2013-08-04 02:36:00,
2013-08-03 19:42:00,54.7,52.3,29.94,North,352,3.0,19.0,92,0.00,,,0.00,meteohub,2013-08-04 02:42:00,
2013-08-03 19:47:00,54.7,52.3,29.94,North,350,6.0,19.0,92,0.00,,,0.00,meteohub,2013-08-04 02:47:00,
2013-08-03 19:52:00,54.5,52.2,29.95,NNW,334,6.0,19.0,92,0.00,,,0.00,meteohub,2013-08-04 02:52:00,
2013-08-03 19:57:00,54.3,52.0,29.94,North,9,4.0,15.0,92,0.00,,,0.00,meteohub,2013-08-04 02:57:00,
2013-08-03 20:03:00,54.3,52.0,29.95,NE,37,6.0,12.0,92,0.00,,,0.00,meteohub,2013-08-04 03:03:00,
2013-08-03 20:08:00,54.3,52.0,29.95,NNW,341,5.0,15.0,92,0.00,,,0.00,meteohub,2013-08-04 03:08:00,
2013-08-03 20:13:00,54.3,52.3,29.95,NNW,342,3.0,15.0,93,0.00,,,0.00,meteohub,2013-08-04 03:13:00,
2013-08-03 20:18:00,54.3,52.0,29.95,NNW,346,4.0,15.0,92,0.00,,,0.00,meteohub,2013-08-04 03:18:00,
2013-08-03 20:23:00,54.3,52.3,29.95,North,4,5.0,14.0,93,0.00,,,0.00,meteohub,2013-08-04 03:23:00,
2013-08-03 20:28:00,54.3,52.0,29.96,NNE,16,5.0,14.0,92,0.00,,,0.00,meteohub,2013-08-04 03:28:00,
2013-08-03 20:33:00,54.3,52.3,29.96,NW,322,5.0,14.0,93,0.00,,,0.00,meteohub,2013-08-04 03:33:00,
2013-08-03 20:38:00,54.3,52.3,29.96,NW,325,1.0,11.0,93,0.00,,,0.00,meteohub,2013-08-04 03:38:00,
2013-08-03 20:43:00,54.3,52.3,29.96,NE,37,5.0,11.0,93,0.00,,,0.00,meteohub,2013-08-04 03:43:00,
2013-08-03 20:48:00,54.3,52.3,29.96,North,351,7.0,10.0,93,0.00,,,0.00,meteohub,2013-08-04 03:48:00,
2013-08-03 20:54:00,54.1,52.2,29.96,NNW,337,1.0,11.0,93,0.00,,,0.00,meteohub,2013-08-04 03:54:00,
2013-08-03 20:59:00,54.1,52.2,29.96,NNW,342,6.0,11.0,93,0.00,,,0.00,meteohub,2013-08-04 03:59:00,
2013-08-03 21:01:00,54.0,52.0,29.96,North,7,8.0,11.0,93,0.00,,,0.00,meteohub,2013-08-04 04:01:00,
2013-08-03 21:02:00,54.0,52.0,29.96,NNW,347,5.0,11.0,93,0.00,,,0.00,meteohub,2013-08-04 04:02:00,
2013-08-03 21:07:00,53.8,51.8,29.96,NNE,20,1.0,10.0,93,0.00,,,0.00,meteohub,2013-08-04 04:07:00,
2013-08-03 21:08:00,53.8,52.2,29.96,West,274,3.0,10.0,94,0.00,,,0.00,meteohub,2013-08-04 04:08:00,
2013-08-03 21:13:00,53.6,52.0,29.97,NNE,29,3.0,10.0,94,0.00,,,0.00,meteohub,2013-08-04 04:13:00,
2013-08-03 21:18:00,53.4,51.8,29.97,North,6,2.0,10.0,94,0.00,,,0.00,meteohub,2013-08-04 04:18:00,
2013-08-03 21:23:00,53.4,51.8,29.97,NW,305,1.0,9.0,94,0.00,,,0.00,meteohub,2013-08-04 04:23:00,
2013-08-03 21:29:00,53.1,51.4,29.97,NNW,332,1.0,7.0,94,0.00,,,0.00,meteohub,2013-08-04 04:29:00,
2013-08-03 21:34:00,52.9,51.3,29.98,North,358,1.0,12.0,94,0.00,,,0.00,meteohub,2013-08-04 04:34:00,
2013-08-03 21:39:00,52.9,51.3,29.98,NNW,328,2.0,12.0,94,0.00,,,0.00,meteohub,2013-08-04 04:39:00,
2013-08-03 21:45:00,52.9,51.3,29.98,WNW,293,1.0,10.0,94,0.00,,,0.00,meteohub,2013-08-04 04:45:00,
2013-08-03 21:50:00,52.9,51.3,29.98,NNE,13,5.0,11.0,94,0.00,,,0.00,meteohub,2013-08-04 04:50:00,
2013-08-03 21:55:00,52.7,51.1,29.98,NNE,15,9.0,11.0,94,0.00,,,0.00,meteohub,2013-08-04 04:55:00,
2013-08-03 22:00:00,52.7,51.3,29.98,North,352,3.0,12.0,95,0.00,,,0.00,meteohub,2013-08-04 05:00:00,
2013-08-03 22:06:00,52.9,51.4,29.98,North,11,3.0,12.0,95,0.00,,,0.00,meteohub,2013-08-04 05:06:00,
2013-08-03 22:11:00,53.1,51.6,29.99,NW,313,3.0,12.0,95,0.00,,,0.00,meteohub,2013-08-04 05:11:00,
2013-08-03 22:16:00,53.1,51.6,29.99,North,352,7.0,9.0,95,0.00,,,0.00,meteohub,2013-08-04 05:16:00,
2013-08-03 22:21:00,53.1,51.6,29.99,NW,321,1.0,10.0,95,0.00,,,0.00,meteohub,2013-08-04 05:21:00,
2013-08-03 22:26:00,53.2,51.8,29.99,NE,47,2.0,10.0,95,0.00,,,0.00,meteohub,2013-08-04 05:26:00,
2013-08-03 22:32:00,53.2,51.8,29.99,NNE,25,8.0,10.0,95,0.00,,,0.00,meteohub,2013-08-04 05:32:00,
2013-08-03 22:37:00,53.2,51.8,29.99,NNE,15,6.0,8.0,95,0.00,,,0.00,meteohub,2013-08-04 05:37:00,
2013-08-03 22:42:00,53.2,51.8,29.99,NW,324,3.0,10.0,95,0.00,,,0.00,meteohub,2013-08-04 05:42:00,
2013-08-03 22:47:00,53.2,51.8,29.99,NNE,18,3.0,11.0,95,0.00,,,0.00,meteohub,2013-08-04 05:47:00,
2013-08-03 22:52:00,53.2,51.8,29.99,NNE,17,8.0,11.0,95,0.00,,,0.00,meteohub,2013-08-04 05:52:00,
2013-08-03 22:58:00,53.2,51.8,29.99,West,274,2.0,9.0,95,0.00,,,0.00,meteohub,2013-08-04 05:58:00,
2013-08-03 23:03:00,53.4,52.0,29.99,North,6,4.0,9.0,95,0.00,,,0.00,meteohub,2013-08-04 06:03:00,
2013-08-03 23:08:00,53.2,51.8,29.99,NNE,26,2.0,9.0,95,0.00,,,0.00,meteohub,2013-08-04 06:08:00,
2013-08-03 23:13:00,53.2,51.8,29.99,North,356,3.0,9.0,95,0.00,,,0.00,meteohub,2013-08-04 06:13:00,
2013-08-03 23:18:00,53.2,51.8,29.99,NW,325,1.0,11.0,95,0.00,,,0.00,meteohub,2013-08-04 06:18:00,
2013-08-03 23:23:00,53.2,51.8,29.99,North,4,3.0,11.0,95,0.00,,,0.00,meteohub,2013-08-04 06:23:00,
2013-08-03 23:29:00,53.2,51.8,29.99,NNE,15,3.0,12.0,95,0.00,,,0.00,meteohub,2013-08-04 06:29:00,
2013-08-03 23:34:00,53.2,51.8,29.99,West,279,2.0,12.0,95,0.00,,,0.00,meteohub,2013-08-04 06:34:00,
2013-08-03 23:39:00,53.2,52.2,29.99,North,354,3.0,12.0,96,0.00,,,0.00,meteohub,2013-08-04 06:39:00,
2013-08-03 23:44:00,53.4,52.3,29.99,NE,47,1.0,9.0,96,0.00,,,0.00,meteohub,2013-08-04 06:44:00,
2013-08-03 23:49:00,53.4,52.3,29.99,NNE,15,6.0,9.0,96,0.00,,,0.00,meteohub,2013-08-04 06:49:00,
2013-08-03 23:54:00,53.4,52.0,29.99,NNW,347,3.0,9.0,95,0.00,,,0.00,meteohub,2013-08-04 06:54:00,